createdAt,value
2018-06-23T00:02:19.778Z,99.90
2018-06-23T00:04:49.277Z,99.90
2018-06-23T00:07:28.728Z,99.90
2018-06-23T00:10:05.379Z,99.90
2018-06-23T00:12:55.076Z,99.90
2018-06-23T00:15:23.617Z,99.90
2018-06-23T00:17:59.367Z,99.90
2018-06-23T00:23:37.912Z,99.90
2018-06-23T00:26:15.876Z,99.90
2018-06-23T00:28:45.460Z,99.90
2018-06-23T00:31:16.019Z,99.90
2018-06-23T00:33:57.323Z,99.90
2018-06-23T00:36:29.380Z,99.90
2018-06-23T00:38:58.017Z,99.90
2018-06-23T00:41:28.516Z,99.90
2018-06-23T00:44:04.344Z,99.90
2018-06-23T00:46:38.778Z,99.90
2018-06-23T00:49:08.521Z,99.90
2018-06-23T00:51:37.385Z,99.90
2018-06-23T00:54:12.436Z,99.90
2018-06-23T00:59:24.070Z,99.90
2018-06-23T01:01:53.574Z,99.90
2018-06-23T01:04:26.006Z,99.90
2018-06-23T01:06:55.851Z,99.90
2018-06-23T01:09:25.134Z,99.90
2018-06-23T01:11:53.905Z,99.90
2018-06-23T01:14:32.516Z,99.90
2018-06-23T01:17:03.021Z,99.90
2018-06-23T01:22:39.988Z,99.90
2018-06-23T01:25:30.511Z,99.90
2018-06-23T01:27:59.159Z,99.90
2018-06-23T01:33:21.440Z,99.90
2018-06-23T01:39:00.604Z,99.90
2018-06-23T01:41:41.060Z,99.90
2018-06-23T01:44:21.916Z,99.90
2018-06-23T01:47:09.674Z,99.90
2018-06-23T01:50:00.788Z,99.90
2018-06-23T01:52:34.828Z,99.90
2018-06-23T01:55:07.589Z,99.90
2018-06-23T01:57:36.074Z,99.90
2018-06-23T02:00:07.808Z,99.90
2018-06-23T02:02:37.434Z,99.90
2018-06-23T02:05:06.382Z,99.90
2018-06-23T02:10:32.782Z,99.90
2018-06-23T02:13:05.065Z,99.90
2018-06-23T02:15:42.818Z,99.90
2018-06-23T02:18:18.882Z,99.90
2018-06-23T02:21:08.732Z,99.90
2018-06-23T02:23:48.348Z,99.90
2018-06-23T02:26:27.009Z,99.90
2018-06-23T02:29:02.762Z,99.90
2018-06-23T02:31:40.382Z,99.90
2018-06-23T02:34:17.948Z,99.90
2018-06-23T02:36:50.445Z,99.90
2018-06-23T02:39:24.739Z,99.90
2018-06-23T02:42:04.178Z,99.90
2018-06-23T02:44:46.628Z,99.90
2018-06-23T02:50:08.107Z,99.90
2018-06-23T02:52:56.348Z,99.90
2018-06-23T02:55:25.038Z,99.90
2018-06-23T02:58:06.040Z,99.90
2018-06-23T03:00:36.512Z,99.90
2018-06-23T03:06:03.682Z,99.90
2018-06-23T03:08:32.039Z,99.90
2018-06-23T03:11:22.901Z,99.90
2018-06-23T03:19:30.242Z,99.90
2018-06-23T03:22:03.102Z,99.90
2018-06-23T03:24:36.087Z,99.90
2018-06-23T03:27:05.722Z,99.90
2018-06-23T03:29:46.353Z,99.90
2018-06-23T03:35:14.229Z,99.90
2018-06-23T03:37:42.806Z,99.90
2018-06-23T03:40:18.882Z,99.90
2018-06-23T03:42:50.935Z,99.90
2018-06-23T03:45:21.652Z,99.90
2018-06-23T03:47:51.066Z,99.90
2018-06-23T03:50:20.951Z,99.90
2018-06-23T03:52:50.389Z,99.90
2018-06-23T03:55:22.697Z,99.90
2018-06-23T03:57:51.053Z,99.90
2018-06-23T04:00:24.474Z,99.90
2018-06-23T04:03:02.697Z,99.90
2018-06-23T04:05:34.687Z,99.90
2018-06-23T04:08:03.425Z,99.90
2018-06-23T04:10:39.710Z,99.90
2018-06-23T04:13:20.656Z,99.90
2018-06-23T04:16:07.498Z,99.90
2018-06-23T04:18:54.628Z,99.90
2018-06-23T04:21:25.645Z,99.90
2018-06-23T04:23:58.684Z,99.90
2018-06-23T04:26:29.780Z,99.90
2018-06-23T04:31:55.726Z,99.90
2018-06-23T04:34:25.793Z,99.90
2018-06-23T04:37:01.836Z,99.90
2018-06-23T04:39:32.366Z,99.90
2018-06-23T04:42:02.958Z,99.90
2018-06-23T04:44:34.870Z,99.90
2018-06-23T04:47:14.102Z,99.90
2018-06-23T04:49:44.614Z,99.90
2018-06-23T04:52:17.904Z,99.90
2018-06-23T04:54:46.584Z,99.90
2018-06-23T04:57:19.568Z,99.90
2018-06-23T04:59:54.744Z,99.90
2018-06-23T05:02:30.200Z,99.90
2018-06-23T05:04:58.923Z,99.90
2018-06-23T05:07:31.766Z,99.90
2018-06-23T05:10:01.044Z,99.90
2018-06-23T05:12:29.551Z,99.90
2018-06-23T05:15:00.113Z,99.90
2018-06-23T05:17:31.142Z,99.90
2018-06-23T05:20:04.846Z,99.90
2018-06-23T05:22:41.379Z,99.90
2018-06-23T05:25:12.702Z,99.90
2018-06-23T05:27:45.514Z,99.90
2018-06-23T05:30:14.352Z,99.90
2018-06-23T05:32:43.716Z,99.90
2018-06-23T05:35:13.196Z,99.90
2018-06-23T05:37:42.885Z,99.90
2018-06-23T05:40:11.692Z,99.90
2018-06-23T05:42:57.670Z,99.90
2018-06-23T05:45:35.912Z,99.90
2018-06-23T05:48:04.667Z,99.90
2018-06-23T05:50:34.321Z,99.90
2018-06-23T05:53:02.940Z,99.90
2018-06-23T05:55:31.587Z,99.90
2018-06-23T05:58:14.676Z,99.90
2018-06-23T06:00:59.426Z,99.90
2018-06-23T06:03:45.926Z,99.90
2018-06-23T06:06:18.629Z,99.90
2018-06-23T06:08:57.682Z,99.90
2018-06-23T06:11:27.478Z,99.90
2018-06-23T06:14:11.660Z,99.90
2018-06-23T06:17:44.290Z,99.90
2018-06-23T06:20:17.228Z,99.90
2018-06-23T06:22:47.942Z,99.90
2018-06-23T06:25:21.754Z,99.90
2018-06-23T06:27:52.536Z,99.90
2018-06-23T06:30:24.298Z,99.90
2018-06-23T06:32:58.799Z,99.90
2018-06-23T06:35:29.345Z,99.90
2018-06-23T06:38:13.986Z,99.90
2018-06-23T06:41:00.798Z,99.90
2018-06-23T06:43:29.478Z,99.90
2018-06-23T06:45:59.230Z,99.90
2018-06-23T06:48:33.910Z,99.90
2018-06-23T06:51:14.916Z,99.90
2018-06-23T06:54:00.470Z,99.90
2018-06-23T06:56:38.335Z,99.90
2018-06-23T06:59:08.959Z,99.90
2018-06-23T07:01:49.935Z,99.90
2018-06-23T07:04:23.159Z,99.90
2018-06-23T07:06:51.599Z,99.90
2018-06-23T07:09:20.304Z,99.90
2018-06-23T07:11:48.956Z,99.90
2018-06-23T07:14:17.678Z,99.90
2018-06-23T07:16:46.308Z,99.90
2018-06-23T07:19:15.115Z,99.90
2018-06-23T07:21:44.627Z,99.90
2018-06-23T07:24:13.424Z,99.90
2018-06-23T07:26:44.219Z,99.90
2018-06-23T07:29:13.818Z,99.90
2018-06-23T07:31:42.428Z,99.90
2018-06-23T07:34:11.202Z,99.90
2018-06-23T07:36:39.875Z,99.90
2018-06-23T07:39:09.896Z,99.90
2018-06-23T07:41:38.597Z,99.90
2018-06-23T07:44:08.808Z,99.90
2018-06-23T07:46:41.766Z,99.90
2018-06-23T07:49:12.542Z,99.90
2018-06-23T07:51:41.176Z,99.90
2018-06-23T07:54:13.535Z,99.90
2018-06-23T07:56:51.834Z,99.90
2018-06-23T08:05:12.144Z,99.90
2018-06-23T08:07:40.606Z,99.90
2018-06-23T08:10:12.397Z,99.90
2018-06-23T08:12:45.294Z,99.90
2018-06-23T08:15:13.996Z,99.90
2018-06-23T08:17:56.437Z,99.90
2018-06-23T08:20:27.118Z,99.90
2018-06-23T08:22:55.749Z,99.90
2018-06-23T08:25:24.378Z,99.90
2018-06-23T08:28:09.360Z,99.90
2018-06-23T08:30:41.176Z,99.90
2018-06-23T08:33:10.047Z,99.90
2018-06-23T08:35:41.844Z,99.90
2018-06-23T08:38:13.646Z,99.90
2018-06-23T08:40:42.328Z,99.90
2018-06-23T08:43:11.079Z,99.90
2018-06-23T08:48:33.274Z,99.90
2018-06-23T08:51:06.341Z,99.90
2018-06-23T08:53:35.834Z,99.90
2018-06-23T08:56:09.154Z,99.90
2018-06-23T08:58:38.870Z,99.90
2018-06-23T09:01:07.457Z,99.90
2018-06-23T09:03:41.738Z,99.90
2018-06-23T09:08:46.724Z,99.90
2018-06-23T09:11:21.041Z,99.90
2018-06-23T09:14:02.869Z,99.90
2018-06-23T09:16:33.393Z,99.90
2018-06-23T09:19:03.120Z,99.90
2018-06-23T09:21:38.400Z,99.90
2018-06-23T09:24:15.160Z,99.90
2018-06-23T09:26:45.668Z,99.90
2018-06-23T09:29:18.659Z,99.90
2018-06-23T09:31:48.384Z,99.90
2018-06-23T09:34:17.974Z,99.90
2018-06-23T09:39:49.376Z,99.90
2018-06-23T09:42:18.913Z,99.90
2018-06-23T09:44:47.650Z,99.90
2018-06-23T09:47:18.312Z,99.90
2018-06-23T09:52:15.310Z,99.90
2018-06-23T09:54:44.007Z,99.90
2018-06-23T09:57:12.546Z,99.90
2018-06-23T09:59:41.024Z,99.90
2018-06-23T10:02:09.848Z,99.90
2018-06-23T10:04:38.380Z,99.90
2018-06-23T10:07:07.104Z,99.90
2018-06-23T10:09:36.728Z,99.90
2018-06-23T10:12:05.396Z,99.90
2018-06-23T10:14:34.211Z,99.90
2018-06-23T10:17:03.672Z,99.90
2018-06-23T10:19:32.308Z,99.90
2018-06-23T10:22:00.975Z,99.90
2018-06-23T10:24:29.771Z,99.90
2018-06-23T10:26:59.346Z,99.90
2018-06-23T10:29:28.020Z,99.90
2018-06-23T10:31:56.720Z,99.90
2018-06-23T10:34:26.447Z,99.90
2018-06-23T10:36:54.988Z,99.90
2018-06-23T10:39:30.687Z,99.90
2018-06-23T10:41:59.054Z,99.90
2018-06-23T10:44:27.484Z,99.90
2018-06-23T10:46:59.267Z,99.90
2018-06-23T10:49:41.679Z,99.90
2018-06-23T10:52:10.188Z,99.90
2018-06-23T10:54:43.096Z,99.90
2018-06-23T10:57:12.768Z,99.90
2018-06-23T10:59:44.771Z,99.90
2018-06-23T11:02:15.358Z,99.90
2018-06-23T11:04:45.893Z,99.90
2018-06-23T11:07:17.585Z,99.90
2018-06-23T11:09:48.133Z,99.90
2018-06-23T11:12:20.609Z,99.90
2018-06-23T11:14:51.033Z,99.90
2018-06-23T11:17:20.753Z,99.90
2018-06-23T11:19:49.362Z,99.90
2018-06-23T11:22:19.076Z,99.90
2018-06-23T11:24:47.666Z,99.90
2018-06-23T11:27:18.196Z,99.90
2018-06-23T11:29:46.828Z,99.90
2018-06-23T11:32:16.626Z,99.90
2018-06-23T11:34:45.481Z,99.90
2018-06-23T11:37:15.981Z,99.90
2018-06-23T11:39:46.503Z,99.90
2018-06-23T11:42:18.400Z,99.90
2018-06-23T11:44:46.949Z,99.90
2018-06-23T11:47:23.052Z,99.90
2018-06-23T11:50:05.864Z,99.90
2018-06-23T11:52:35.475Z,99.90
2018-06-23T11:55:06.094Z,99.90
2018-06-23T11:57:40.493Z,99.90
2018-06-23T12:00:09.397Z,99.90
2018-06-23T12:02:43.984Z,99.90
2018-06-23T12:05:13.724Z,99.90
2018-06-23T12:07:43.247Z,99.90
2018-06-23T12:10:11.962Z,99.90
2018-06-23T12:12:42.542Z,99.90
2018-06-23T12:15:12.116Z,99.90
2018-06-23T12:20:11.092Z,99.90
2018-06-23T12:22:43.445Z,99.90
2018-06-23T12:25:12.111Z,99.90
2018-06-23T12:27:40.778Z,99.90
2018-06-23T12:30:13.395Z,99.90
2018-06-23T12:32:45.471Z,99.90
2018-06-23T12:35:17.272Z,99.90
2018-06-23T12:37:51.481Z,99.90
2018-06-23T12:40:43.498Z,99.90
2018-06-23T12:43:23.952Z,99.90
2018-06-23T12:45:53.419Z,99.90
2018-06-23T12:48:34.472Z,99.90
2018-06-23T12:51:02.827Z,99.90
2018-06-23T12:53:39.236Z,99.90
2018-06-23T12:58:43.641Z,99.90
2018-06-23T13:01:13.222Z,99.90
2018-06-23T13:03:46.513Z,99.90
2018-06-23T13:06:22.677Z,99.90
2018-06-23T13:08:54.645Z,99.90
2018-06-23T13:11:42.063Z,99.90
2018-06-23T13:14:10.799Z,99.90
2018-06-23T13:16:39.452Z,99.90
2018-06-23T13:19:09.090Z,99.90
2018-06-23T13:21:45.133Z,99.90
2018-06-23T13:27:22.697Z,99.90
2018-06-23T13:29:53.313Z,99.90
2018-06-23T13:32:22.096Z,99.70
2018-06-23T13:34:55.253Z,99.70
2018-06-23T13:37:24.000Z,99.90
2018-06-23T13:39:53.089Z,99.90
2018-06-23T13:45:27.495Z,99.90
2018-06-23T13:48:14.595Z,99.90
2018-06-23T13:50:45.225Z,99.90
2018-06-23T13:53:13.830Z,99.90
2018-06-23T13:55:45.880Z,99.90
2018-06-23T13:58:15.551Z,99.90
2018-06-23T14:00:53.797Z,99.70
2018-06-23T14:03:22.532Z,99.80
2018-06-23T14:05:52.251Z,99.90
2018-06-23T14:08:23.093Z,99.40
2018-06-23T14:10:56.429Z,99.90
2018-06-23T14:13:26.141Z,99.00
2018-06-23T14:16:04.599Z,99.90
2018-06-23T14:18:38.497Z,99.90
2018-06-23T14:21:13.135Z,99.30
2018-06-23T14:23:42.721Z,99.20
2018-06-23T14:26:27.345Z,99.00
2018-06-23T14:29:03.781Z,99.60
2018-06-23T14:31:36.112Z,99.90
2018-06-23T14:34:10.258Z,99.10
2018-06-23T14:36:40.755Z,98.70
2018-06-23T14:39:13.442Z,98.30
2018-06-23T14:41:47.095Z,98.80
2018-06-23T14:46:53.963Z,99.10
2018-06-23T14:49:39.789Z,98.60
2018-06-23T14:52:08.328Z,99.10
2018-06-23T14:54:43.659Z,99.70
2018-06-23T14:57:17.926Z,99.10
2018-06-23T15:02:29.689Z,98.40
2018-06-23T15:04:59.343Z,99.30
2018-06-23T15:07:29.978Z,98.90
2018-06-23T15:10:14.892Z,96.40
2018-06-23T15:12:56.628Z,96.10
2018-06-23T15:15:35.630Z,95.00
2018-06-23T15:18:11.581Z,94.00
2018-06-23T15:20:41.282Z,94.50
2018-06-23T15:23:09.682Z,94.60
2018-06-23T15:25:38.337Z,94.20
2018-06-23T15:28:06.980Z,94.30
2018-06-23T15:30:36.401Z,93.60
2018-06-23T15:33:05.004Z,94.00
2018-06-23T15:35:33.634Z,93.80
2018-06-23T15:38:04.142Z,94.20
2018-06-23T15:40:38.408Z,93.00
2018-06-23T15:43:07.059Z,92.80
2018-06-23T15:45:41.844Z,92.60
2018-06-23T15:48:17.652Z,93.00
2018-06-23T15:50:51.832Z,93.50
2018-06-23T15:53:34.375Z,93.30
2018-06-23T15:56:03.186Z,92.50
2018-06-23T15:58:32.767Z,92.40
2018-06-23T16:01:01.392Z,92.30
2018-06-23T16:03:33.792Z,92.20
2018-06-23T16:06:03.389Z,92.70
2018-06-23T16:08:37.652Z,92.20
2018-06-23T16:11:06.303Z,92.70
2018-06-23T16:13:35.881Z,93.40
2018-06-23T16:16:06.526Z,92.90
2018-06-23T16:18:42.513Z,92.90
2018-06-23T16:23:42.626Z,92.20
2018-06-23T16:28:41.554Z,92.30
2018-06-23T16:31:12.022Z,92.30
2018-06-23T16:33:41.641Z,92.10
2018-06-23T16:36:18.871Z,91.80
2018-06-23T16:39:06.637Z,92.30
2018-06-23T16:41:36.316Z,92.80
2018-06-23T16:44:08.898Z,93.40
2018-06-23T16:46:57.566Z,93.60
2018-06-23T16:49:29.537Z,93.40
2018-06-23T16:52:03.061Z,93.30
2018-06-23T16:54:45.471Z,93.80
2018-06-23T17:00:11.755Z,93.80
2018-06-23T17:02:41.437Z,94.00
2018-06-23T17:05:30.916Z,94.20
2018-06-23T17:08:20.149Z,94.80
2018-06-23T17:10:53.776Z,94.70
2018-06-23T17:13:25.893Z,94.60
2018-06-23T17:16:13.577Z,94.70
2018-06-23T17:18:45.982Z,94.40
2018-06-23T17:21:18.622Z,94.10
2018-06-23T17:23:52.677Z,93.60
2018-06-23T17:26:21.254Z,93.60
2018-06-23T17:28:49.898Z,94.40
2018-06-23T17:31:21.750Z,94.00
2018-06-23T17:33:59.941Z,93.80
2018-06-23T17:36:28.577Z,93.80
2018-06-23T17:38:58.403Z,94.00
2018-06-23T17:41:41.475Z,94.30
2018-06-23T17:44:13.991Z,93.80
2018-06-23T17:46:43.890Z,93.90
2018-06-23T17:49:12.592Z,93.80
2018-06-23T17:51:48.386Z,94.10
2018-06-23T17:54:16.977Z,93.70
2018-06-23T17:56:47.483Z,94.20
2018-06-23T17:59:15.988Z,94.10
2018-06-23T18:04:12.748Z,94.50
2018-06-23T18:06:41.386Z,94.60
2018-06-23T18:09:24.426Z,94.80
2018-06-23T18:12:06.113Z,95.00
2018-06-23T18:14:51.957Z,95.40
2018-06-23T18:17:33.531Z,95.60
2018-06-23T18:20:04.174Z,96.00
2018-06-23T18:22:38.793Z,96.40
2018-06-23T18:25:07.390Z,96.30
2018-06-23T18:27:39.726Z,96.70
2018-06-23T18:30:18.831Z,96.80
2018-06-23T18:32:51.825Z,97.20
2018-06-23T18:35:31.898Z,97.20
2018-06-23T18:40:54.592Z,97.70
2018-06-23T18:43:24.167Z,97.90
2018-06-23T18:45:56.609Z,97.90
2018-06-23T18:48:26.060Z,98.20
2018-06-23T18:50:56.050Z,98.40
2018-06-23T18:53:25.595Z,98.70
2018-06-23T18:56:05.685Z,98.90
2018-06-23T18:58:40.495Z,99.20
2018-06-23T19:03:48.625Z,99.70
2018-06-23T19:06:18.201Z,99.90
2018-06-23T19:08:48.448Z,99.90
2018-06-23T19:11:35.505Z,99.90
2018-06-23T19:14:04.795Z,99.90
2018-06-23T19:16:33.573Z,99.90
2018-06-23T19:19:02.229Z,99.90
2018-06-23T19:21:32.814Z,99.90
2018-06-23T19:24:02.540Z,99.90
2018-06-23T19:26:31.027Z,99.90
2018-06-23T19:29:03.793Z,99.90
2018-06-23T19:31:33.349Z,99.90
2018-06-23T19:34:07.510Z,99.90
2018-06-23T19:36:37.160Z,99.90
2018-06-23T19:39:08.817Z,99.90
2018-06-23T19:41:38.515Z,99.90
2018-06-23T19:44:07.519Z,99.90
2018-06-23T19:46:39.297Z,99.90
2018-06-23T19:49:08.888Z,99.90
2018-06-23T19:51:37.678Z,99.90
2018-06-23T19:54:06.294Z,99.90
2018-06-23T19:56:44.471Z,99.90
2018-06-23T19:59:15.066Z,99.90
2018-06-23T20:01:44.235Z,99.90
2018-06-23T20:04:20.958Z,99.90
2018-06-23T20:06:51.012Z,99.90
2018-06-23T20:09:21.805Z,99.90
2018-06-23T20:11:51.437Z,99.90
2018-06-23T20:14:30.906Z,99.90
2018-06-23T20:17:01.700Z,99.90
2018-06-23T20:19:33.968Z,99.90
2018-06-23T20:22:04.804Z,99.90
2018-06-23T20:24:36.902Z,99.90
2018-06-23T20:27:09.566Z,99.90
2018-06-23T20:29:40.506Z,99.90
2018-06-23T20:32:10.165Z,99.90
2018-06-23T20:34:57.827Z,99.90
2018-06-23T20:37:41.379Z,99.90
2018-06-23T20:40:11.079Z,99.90
2018-06-23T20:42:40.733Z,99.90
2018-06-23T20:45:10.601Z,99.90
2018-06-23T20:47:39.372Z,99.90
2018-06-23T20:50:08.145Z,99.90
2018-06-23T20:52:37.870Z,99.90
2018-06-23T20:55:06.326Z,99.90
2018-06-23T20:57:35.007Z,99.90
2018-06-23T21:00:03.713Z,99.90
2018-06-23T21:05:04.495Z,99.90
2018-06-23T21:07:34.131Z,99.90
2018-06-23T21:10:03.804Z,99.90
2018-06-23T21:12:34.477Z,99.90
2018-06-23T21:15:03.541Z,99.90
2018-06-23T21:17:33.261Z,99.90
2018-06-23T21:20:12.004Z,99.90
2018-06-23T21:22:42.479Z,99.90
2018-06-23T21:25:15.303Z,99.90
2018-06-23T21:27:49.345Z,99.90
2018-06-23T21:30:19.931Z,99.90
2018-06-23T21:32:50.537Z,99.90
2018-06-23T21:37:58.701Z,99.90
2018-06-23T21:40:39.331Z,99.90
2018-06-23T21:43:10.757Z,99.90
2018-06-23T21:45:47.753Z,99.90
2018-06-23T21:48:20.431Z,99.90
2018-06-23T21:50:53.331Z,99.90
2018-06-23T21:53:23.127Z,99.90
2018-06-23T21:56:02.901Z,99.90
2018-06-23T22:01:25.906Z,99.90
2018-06-23T22:04:11.369Z,99.90
2018-06-23T22:06:42.013Z,99.90
2018-06-23T22:09:14.993Z,99.90
2018-06-23T22:11:46.720Z,99.90
2018-06-23T22:14:20.419Z,99.90
2018-06-23T22:16:49.030Z,99.90
2018-06-23T22:19:21.655Z,99.90
2018-06-23T22:21:52.295Z,99.90
2018-06-23T22:24:23.071Z,99.90
2018-06-23T22:26:57.837Z,99.90
2018-06-23T22:29:26.559Z,99.90
2018-06-23T22:31:57.146Z,99.90
2018-06-23T22:34:26.815Z,99.90
2018-06-23T22:36:58.899Z,99.90
2018-06-23T22:39:33.587Z,99.90
2018-06-23T22:42:19.427Z,99.90
2018-06-23T22:45:05.761Z,99.90
2018-06-23T22:47:36.269Z,99.90
2018-06-23T22:50:07.561Z,99.90
2018-06-23T22:52:39.629Z,99.90
2018-06-23T22:55:10.916Z,99.90
2018-06-23T22:57:41.436Z,99.90
2018-06-23T23:00:25.694Z,99.90
2018-06-23T23:02:59.670Z,99.90
2018-06-23T23:05:30.187Z,99.90
2018-06-23T23:08:06.248Z,99.90
2018-06-23T23:10:38.371Z,99.90
2018-06-23T23:15:58.076Z,99.90
2018-06-23T23:18:36.862Z,99.90
2018-06-23T23:21:13.559Z,99.90
2018-06-23T23:23:47.777Z,99.90
2018-06-23T23:26:35.527Z,99.90
2018-06-23T23:29:03.925Z,99.90
2018-06-23T23:34:32.566Z,99.90
2018-06-23T23:37:12.381Z,99.90
2018-06-23T23:39:42.960Z,99.90
2018-06-23T23:42:29.699Z,99.90
2018-06-23T23:45:03.176Z,99.90
2018-06-23T23:50:33.921Z,99.90
2018-06-23T23:53:02.703Z,99.90
2018-06-23T23:55:31.393Z,99.90
2018-06-23T23:58:00.939Z,99.90
